Time;durP1;ratioP1;P1;durP2;ratioP2;P2;SDS_P1;SDS_P2;PMS_P1;PMS_P2;Temp;Humidity;BMP_temperature;BMP_pressure;BME280_temperature;BME280_humidity;BME280_pressure;Samples;Min_cycle;Max_cycle;Signal;HPM_P1;HPM_P2
2023/04/24 00:00:10;;;;;;;1.10;0.80;;;22.40;71.20;;;;;;5042940;28;20462;-64
2023/04/24 00:02:38;;;;;;;1.87;1.10;;;22.40;71.20;;;;;;5053152;28;20465;-57
2023/04/24 00:05:05;;;;;;;1.60;1.10;;;22.40;71.20;;;;;;5047100;28;20979;-56
2023/04/24 00:07:34;;;;;;;1.30;1.03;;;22.40;71.30;;;;;;5044512;28;20582;-61
2023/04/24 00:10:01;;;;;;;2.03;0.87;;;22.30;71.20;;;;;;5053228;28;21210;-59
2023/04/24 00:12:27;;;;;;;1.67;1.10;;;22.40;71.40;;;;;;5055438;28;20457;-53
2023/04/24 00:14:54;;;;;;;1.30;0.95;;;22.30;71.20;;;;;;5045667;28;20461;-67
2023/04/24 00:17:21;;;;;;;0.93;0.83;;;22.30;71.30;;;;;;5041272;28;20465;-68
2023/04/24 00:19:48;;;;;;;1.30;1.00;;;22.30;71.30;;;;;;5046507;28;20464;-55
2023/04/24 00:22:15;;;;;;;1.30;1.00;;;22.30;71.30;;;;;;5052071;28;20477;-58
2023/04/24 00:24:43;;;;;;;2.27;1.00;;;22.30;71.30;;;;;;5055677;28;20464;-58
2023/04/24 00:27:09;;;;;;;3.40;1.20;;;22.30;71.30;;;;;;5046985;28;20523;-54
2023/04/24 00:29:36;;;;;;;5.40;1.10;;;22.30;71.30;;;;;;5048927;28;21023;-62
2023/04/24 00:32:03;;;;;;;2.40;1.43;;;22.20;71.30;;;;;;5051099;28;21035;-58
2023/04/24 00:34:32;;;;;;;1.80;1.10;;;22.20;71.20;;;;;;5055983;28;20531;-54
2023/04/24 00:36:58;;;;;;;1.70;1.40;;;22.20;71.30;;;;;;5059061;28;20571;-58
2023/04/24 00:39:25;;;;;;;1.30;1.00;;;22.20;71.30;;;;;;5053339;28;20465;-62
2023/04/24 00:41:55;;;;;;;1.40;0.90;;;22.20;72.10;;;;;;5049412;28;20920;-59
2023/04/24 00:44:21;;;;;;;1.30;0.90;;;22.20;71.30;;;;;;5043473;28;20594;-57
2023/04/24 00:46:51;;;;;;;1.30;0.90;;;22.20;71.30;;;;;;5063311;28;20519;-52
2023/04/24 00:49:19;;;;;;;1.20;0.80;;;22.20;71.40;;;;;;5056810;28;20472;-55
2023/04/24 00:51:46;;;;;;;1.67;1.00;;;22.20;71.40;;;;;;5052340;28;20462;-62
2023/04/24 00:54:13;;;;;;;2.00;1.07;;;22.20;71.40;;;;;;5052340;28;20458;-58
2023/04/24 00:56:40;;;;;;;2.20;1.00;;;22.10;71.30;;;;;;5053057;28;20563;-57
2023/04/24 00:59:09;;;;;;;1.33;1.20;;;22.10;71.40;;;;;;5050114;28;20981;-54
2023/04/24 01:01:36;;;;;;;1.17;0.80;;;22.10;71.40;;;;;;5047962;28;20511;-55
2023/04/24 01:04:03;;;;;;;1.23;0.90;;;22.10;71.40;;;;;;5049295;28;20465;-60
2023/04/24 01:06:31;;;;;;;1.08;0.90;;;22.10;71.40;;;;;;5058553;28;20252;-56
2023/04/24 01:09:00;;;;;;;1.30;1.10;;;22.10;71.40;;;;;;5050002;28;20199;-60
2023/04/24 01:11:27;;;;;;;1.08;0.93;;;22.00;71.30;;;;;;5055284;28;20227;-57
2023/04/24 01:13:53;;;;;;;1.30;1.10;;;22.00;71.40;;;;;;5054682;28;20195;-65
2023/04/24 01:16:21;;;;;;;1.58;0.90;;;22.00;71.30;;;;;;5047080;28;20214;-59
2023/04/24 01:18:48;;;;;;;1.30;1.00;;;22.00;71.40;;;;;;5047377;28;20206;-61
2023/04/24 01:21:16;;;;;;;1.83;1.00;;;22.00;71.40;;;;;;5046855;28;20199;-58
2023/04/24 01:23:44;;;;;;;2.50;1.40;;;22.00;71.50;;;;;;5053301;28;20590;-57
2023/04/24 01:26:11;;;;;;;1.20;0.90;;;22.00;71.40;;;;;;5047883;28;20272;-59
2023/04/24 01:28:38;;;;;;;1.10;0.80;;;22.00;72.30;;;;;;5047817;28;20462;-55
2023/04/24 01:31:05;;;;;;;1.70;0.95;;;21.90;71.40;;;;;;5042134;28;20208;-64
2023/04/24 01:33:33;;;;;;;1.10;0.95;;;21.90;71.40;;;;;;5047247;28;20635;-55
2023/04/24 01:36:00;;;;;;;1.10;1.00;;;21.90;71.40;;;;;;5047300;28;20240;-56
2023/04/24 01:38:27;;;;;;;1.60;1.00;;;21.90;71.50;;;;;;5057729;28;20266;-61
2023/04/24 01:40:55;;;;;;;1.38;0.93;;;21.90;71.40;;;;;;5064083;28;20198;-55
2023/04/24 01:43:22;;;;;;;1.10;0.90;;;21.90;71.50;;;;;;5053522;28;20211;-55
2023/04/24 01:45:49;;;;;;;1.27;1.08;;;21.90;71.50;;;;;;5044625;28;20206;-62
2023/04/24 01:48:15;;;;;;;1.45;0.90;;;21.90;71.50;;;;;;5048109;28;20211;-60
2023/04/24 01:50:43;;;;;;;1.10;0.80;;;21.90;71.50;;;;;;5050179;28;20209;-61
2023/04/24 01:53:11;;;;;;;2.65;0.80;;;21.80;71.40;;;;;;5051985;28;20300;-64
2023/04/24 01:55:37;;;;;;;1.48;0.93;;;21.80;71.50;;;;;;5057462;28;20686;-58
2023/04/24 01:58:06;;;;;;;0.90;0.70;;;21.80;71.50;;;;;;5056499;28;20223;-57
2023/04/24 02:00:32;;;;;;;1.20;0.90;;;21.80;71.50;;;;;;5050473;28;20196;-56
2023/04/24 02:03:01;;;;;;;1.10;1.00;;;21.80;71.50;;;;;;5046154;28;20199;-60
2023/04/24 02:05:28;;;;;;;1.20;0.90;;;21.80;71.50;;;;;;5049616;28;20191;-65
2023/04/24 02:07:55;;;;;;;2.03;0.93;;;21.80;71.50;;;;;;5046256;28;20203;-57
2023/04/24 02:10:22;;;;;;;1.05;0.85;;;21.80;71.60;;;;;;5045392;28;20198;-64
2023/04/24 02:12:48;;;;;;;2.00;1.45;;;21.80;71.60;;;;;;5044741;28;20242;-54
2023/04/24 02:15:17;;;;;;;2.00;1.05;;;21.80;71.60;;;;;;5046502;28;20670;-59
2023/04/24 02:17:44;;;;;;;2.17;1.42;;;21.80;71.60;;;;;;5053261;28;20221;-54
2023/04/24 02:20:11;;;;;;;1.40;0.90;;;21.80;71.70;;;;;;5047428;28;20594;-58
2023/04/24 02:22:38;;;;;;;1.15;1.00;;;21.70;71.60;;;;;;5047569;28;20211;-67
2023/04/24 02:25:05;;;;;;;1.63;1.30;;;21.70;71.60;;;;;;5043970;28;20294;-57
2023/04/24 02:27:32;;;;;;;1.00;0.90;;;21.70;71.50;;;;;;5044583;28;20199;-55
2023/04/24 02:29:58;;;;;;;1.05;0.80;;;21.70;71.50;;;;;;5047711;28;20196;-67
2023/04/24 02:32:26;;;;;;;1.58;0.95;;;21.70;71.60;;;;;;5059270;28;20244;-53
2023/04/24 02:34:53;;;;;;;1.20;0.90;;;21.70;71.70;;;;;;5051704;28;20751;-56
2023/04/24 02:37:20;;;;;;;1.25;1.05;;;21.70;71.70;;;;;;5043210;28;20210;-62
2023/04/24 02:39:46;;;;;;;1.48;1.10;;;21.70;71.70;;;;;;5053743;28;20196;-56
2023/04/24 02:42:13;;;;;;;1.33;1.08;;;21.70;71.70;;;;;;5053430;28;20261;-56
2023/04/24 02:44:40;;;;;;;1.10;0.90;;;21.60;71.60;;;;;;5054456;28;20195;-59
2023/04/24 02:47:08;;;;;;;1.20;1.00;;;21.60;71.60;;;;;;5048756;28;20207;-55
2023/04/24 02:49:36;;;;;;;1.38;1.10;;;21.60;71.60;;;;;;5047439;28;20203;-58
2023/04/24 02:52:03;;;;;;;1.17;0.88;;;21.60;71.50;;;;;;5060757;28;20207;-57
2023/04/24 02:54:29;;;;;;;1.20;0.90;;;21.60;71.60;;;;;;5049167;28;20204;-54
2023/04/24 02:56:56;;;;;;;2.38;1.00;;;21.60;71.60;;;;;;5059843;28;20230;-58
2023/04/24 02:59:23;;;;;;;1.90;0.85;;;21.60;71.60;;;;;;5053661;28;20226;-56
2023/04/24 03:01:49;;;;;;;1.00;0.85;;;21.60;71.60;;;;;;5046685;28;20199;-53
2023/04/24 03:04:20;;;;;;;1.60;1.10;;;21.60;71.60;;;;;;5052632;28;20210;-61
2023/04/24 03:06:48;;;;;;;1.27;0.88;;;21.60;71.60;;;;;;5053216;28;20563;-54
2023/04/24 03:09:14;;;;;;;1.10;0.90;;;21.60;71.70;;;;;;5053922;28;20195;-59
2023/04/24 03:11:41;;;;;;;1.85;1.00;;;21.50;71.60;;;;;;5061852;28;20206;-65
2023/04/24 03:14:08;;;;;;;1.60;0.77;;;21.50;71.60;;;;;;5055634;28;20655;-54
2023/04/24 03:16:34;;;;;;;2.05;0.93;;;21.50;71.60;;;;;;5052365;28;20239;-62
2023/04/24 03:19:01;;;;;;;1.27;1.13;;;21.50;71.60;;;;;;5054934;28;20761;-53
2023/04/24 03:21:28;;;;;;;1.40;1.15;;;21.50;71.60;;;;;;5059205;28;20555;-56
2023/04/24 03:23:56;;;;;;;1.08;0.75;;;21.50;71.60;;;;;;5050072;28;20195;-56
2023/04/24 03:26:23;;;;;;;1.05;0.77;;;21.50;71.60;;;;;;5059253;28;20188;-55
2023/04/24 03:28:49;;;;;;;1.13;1.02;;;21.50;71.60;;;;;;5053959;28;20240;-53
2023/04/24 03:31:16;;;;;;;1.10;0.90;;;21.50;71.60;;;;;;5047010;28;20195;-62
2023/04/24 03:33:43;;;;;;;1.20;0.98;;;21.50;71.60;;;;;;5057694;28;20609;-54
2023/04/24 03:36:10;;;;;;;1.10;0.90;;;21.50;71.70;;;;;;5060121;28;20261;-55
2023/04/24 03:38:36;;;;;;;1.20;0.90;;;21.40;71.50;;;;;;5051261;28;20220;-59
2023/04/24 03:41:04;;;;;;;1.35;1.00;;;21.50;71.60;;;;;;5057990;28;20582;-56
2023/04/24 03:43:33;;;;;;;1.42;1.10;;;21.40;71.50;;;;;;5059587;28;20198;-58
2023/04/24 03:45:59;;;;;;;1.17;0.80;;;21.40;71.50;;;;;;5054081;28;20211;-61
2023/04/24 03:48:26;;;;;;;1.00;0.85;;;21.40;71.50;;;;;;5052086;28;20207;-63
2023/04/24 03:50:53;;;;;;;1.00;0.90;;;21.40;71.50;;;;;;5046915;28;20614;-57
2023/04/24 03:53:19;;;;;;;1.48;1.00;;;21.40;72.30;;;;;;5056683;28;20203;-56
2023/04/24 03:55:46;;;;;;;2.28;1.00;;;21.40;71.50;;;;;;5052656;28;20195;-51
2023/04/24 03:58:15;;;;;;;1.17;0.82;;;21.40;71.60;;;;;;5055745;28;20222;-54
2023/04/24 04:00:41;;;;;;;1.15;1.05;;;21.40;71.50;;;;;;5041346;28;20187;-64
2023/04/24 04:03:08;;;;;;;1.00;0.80;;;21.40;71.60;;;;;;5052388;28;20241;-54
2023/04/24 04:05:35;;;;;;;1.30;0.80;;;21.40;71.60;;;;;;5054342;28;20245;-56
2023/04/24 04:08:01;;;;;;;1.00;0.90;;;21.40;71.70;;;;;;5045076;28;20203;-59
2023/04/24 04:10:28;;;;;;;1.10;0.90;;;21.30;71.60;;;;;;5052333;28;20724;-56
2023/04/24 04:12:55;;;;;;;1.20;0.80;;;21.30;71.50;;;;;;5052673;28;20232;-56
2023/04/24 04:15:23;;;;;;;1.00;0.80;;;21.40;71.60;;;;;;5045708;28;20206;-58
2023/04/24 04:17:49;;;;;;;0.90;0.80;;;21.40;71.70;;;;;;5043738;28;20261;-57
2023/04/24 04:20:16;;;;;;;1.27;1.08;;;21.30;71.50;;;;;;5048466;28;20207;-55
2023/04/24 04:22:43;;;;;;;1.85;1.20;;;21.30;71.60;;;;;;5048894;28;20606;-61
2023/04/24 04:25:11;;;;;;;2.40;1.40;;;21.30;71.50;;;;;;5040940;28;23058;-59
2023/04/24 04:27:38;;;;;;;1.20;0.90;;;21.30;71.50;;;;;;5047097;28;20570;-55
2023/04/24 04:30:06;;;;;;;1.30;1.10;;;21.30;71.50;;;;;;5046763;28;20272;-63
2023/04/24 04:32:34;;;;;;;1.13;0.70;;;21.30;71.50;;;;;;5049682;28;20210;-62
2023/04/24 04:35:03;;;;;;;1.23;0.90;;;21.30;71.50;;;;;;5055717;28;21382;-62
2023/04/24 04:37:31;;;;;;;1.00;0.80;;;21.30;71.70;;;;;;5048012;28;20215;-56
2023/04/24 04:39:57;;;;;;;1.05;0.88;;;21.30;71.60;;;;;;5060409;28;20244;-54
2023/04/24 04:42:24;;;;;;;1.42;0.95;;;21.30;71.60;;;;;;5050480;28;20238;-54
2023/04/24 04:44:51;;;;;;;1.33;0.73;;;21.30;71.70;;;;;;5049057;28;22583;-62
2023/04/24 04:47:18;;;;;;;1.10;0.90;;;21.20;71.60;;;;;;5054089;28;20203;-56
2023/04/24 04:49:46;;;;;;;1.17;0.95;;;21.20;71.50;;;;;;5058663;28;20630;-57
2023/04/24 04:52:12;;;;;;;1.58;1.10;;;21.20;71.50;;;;;;5060782;28;20256;-64
2023/04/24 04:54:39;;;;;;;1.45;1.00;;;21.20;71.60;;;;;;5054378;28;20195;-60
2023/04/24 04:57:06;;;;;;;0.90;0.80;;;21.20;71.50;;;;;;5052792;28;20194;-56
2023/04/24 04:59:33;;;;;;;1.00;0.77;;;21.20;71.50;;;;;;5055105;28;20585;-62
2023/04/24 05:02:00;;;;;;;1.00;0.70;;;21.20;71.60;;;;;;5054826;28;20598;-59
2023/04/24 05:04:27;;;;;;;1.00;0.70;;;21.20;71.60;;;;;;5056687;28;20191;-55
2023/04/24 05:06:55;;;;;;;1.95;0.90;;;21.20;71.60;;;;;;5054519;28;20202;-62
2023/04/24 05:09:21;;;;;;;1.10;1.00;;;21.20;71.70;;;;;;5052369;28;20215;-59
2023/04/24 05:11:48;;;;;;;1.15;0.90;;;21.20;71.60;;;;;;5056810;28;20217;-59
2023/04/24 05:14:15;;;;;;;0.90;0.77;;;21.10;71.50;;;;;;5050112;28;21999;-59
2023/04/24 05:16:42;;;;;;;1.00;0.80;;;21.20;71.70;;;;;;5052736;28;20196;-61
2023/04/24 05:19:08;;;;;;;1.00;0.80;;;21.20;71.80;;;;;;5058162;28;20686;-51
2023/04/24 05:21:35;;;;;;;1.65;0.93;;;21.20;71.70;;;;;;5058431;28;20305;-59
2023/04/24 05:24:03;;;;;;;0.90;0.70;;;21.20;71.50;;;;;;5054969;28;20206;-57
2023/04/24 05:26:30;;;;;;;1.20;0.80;;;21.20;71.50;;;;;;5054551;28;20610;-57
2023/04/24 05:28:57;;;;;;;1.00;0.90;;;21.20;71.50;;;;;;5061665;28;20207;-55
2023/04/24 05:31:23;;;;;;;1.10;1.00;;;21.30;71.40;;;;;;5048392;28;20210;-63
2023/04/24 05:33:50;;;;;;;0.95;0.80;;;21.30;71.50;;;;;;5051400;28;20263;-55
2023/04/24 05:36:17;;;;;;;4.43;1.00;;;21.30;71.50;;;;;;5050128;28;20207;-59
2023/04/24 05:38:43;;;;;;;1.52;0.98;;;21.30;71.40;;;;;;5047150;28;20386;-55
2023/04/24 05:41:11;;;;;;;1.00;0.70;;;21.30;71.40;;;;;;5056996;28;20207;-57
2023/04/24 05:43:38;;;;;;;1.30;0.90;;;21.30;71.40;;;;;;5050716;28;20215;-60
2023/04/24 05:46:05;;;;;;;0.90;0.77;;;21.30;71.40;;;;;;5042544;28;20195;-53
2023/04/24 05:48:31;;;;;;;1.20;0.90;;;21.30;71.40;;;;;;5056368;28;20210;-59
2023/04/24 05:50:58;;;;;;;1.60;0.95;;;21.40;71.50;;;;;;5055292;28;20187;-55
2023/04/24 05:53:25;;;;;;;1.30;0.93;;;21.30;71.40;;;;;;5047637;28;20249;-55
2023/04/24 05:55:51;;;;;;;1.05;0.77;;;21.40;71.50;;;;;;5052169;28;20202;-56
2023/04/24 05:58:19;;;;;;;1.30;0.82;;;21.30;71.40;;;;;;5061133;28;20223;-57
2023/04/24 06:00:46;;;;;;;1.42;1.15;;;21.30;71.40;;;;;;5040365;28;20195;-55
2023/04/24 06:03:13;;;;;;;1.40;0.70;;;21.40;71.50;;;;;;5059828;28;20195;-55
2023/04/24 06:05:40;;;;;;;1.25;0.80;;;21.40;71.30;;;;;;5048876;28;20199;-62
2023/04/24 06:08:07;;;;;;;0.90;0.80;;;21.40;71.30;;;;;;5045104;28;20207;-63
2023/04/24 06:10:33;;;;;;;1.00;0.80;;;21.40;71.30;;;;;;5049813;28;20195;-53
2023/04/24 06:13:01;;;;;;;1.08;0.75;;;21.40;71.30;;;;;;5049867;28;20260;-60
2023/04/24 06:15:31;;;;;;;1.00;0.73;;;21.40;71.30;;;;;;5037813;28;20203;-56
2023/04/24 06:17:57;;;;;;;0.90;0.73;;;21.50;72.20;;;;;;5040662;28;20238;-54
2023/04/24 06:20:24;;;;;;;1.00;0.80;;;21.50;71.40;;;;;;5047334;28;20464;-61
2023/04/24 06:22:51;;;;;;;0.98;0.80;;;21.50;71.30;;;;;;5043066;28;20482;-58
2023/04/24 06:25:18;;;;;;;1.00;0.90;;;21.50;71.20;;;;;;5040888;28;20219;-55
2023/04/24 06:27:45;;;;;;;1.20;0.80;;;21.60;71.30;;;;;;5042464;28;20206;-54
2023/04/24 06:30:12;;;;;;;1.02;0.80;;;21.50;71.20;;;;;;5040780;28;20207;-61
2023/04/24 06:32:40;;;;;;;1.20;0.90;;;21.60;71.40;;;;;;5039593;28;20253;-55
2023/04/24 06:35:09;;;;;;;1.00;0.80;;;21.60;71.30;;;;;;5049712;28;20204;-56
2023/04/24 06:37:36;;;;;;;1.43;1.00;;;21.60;71.30;;;;;;5048394;28;20615;-59
2023/04/24 06:40:03;;;;;;;1.05;0.82;;;21.60;71.20;;;;;;5044432;28;20473;-58
2023/04/24 06:42:30;;;;;;;1.00;0.80;;;21.60;71.20;;;;;;5057469;28;20199;-56
2023/04/24 06:44:56;;;;;;;1.00;0.80;;;21.60;71.20;;;;;;5049622;28;20221;-58
2023/04/24 06:47:23;;;;;;;1.83;0.90;;;21.60;71.20;;;;;;5058374;28;20191;-58
2023/04/24 06:49:52;;;;;;;1.10;0.97;;;21.60;71.20;;;;;;5058978;28;20187;-57
2023/04/24 06:52:19;;;;;;;0.90;0.65;;;21.60;71.10;;;;;;5052233;28;20531;-54
2023/04/24 06:54:46;;;;;;;1.10;0.80;;;21.60;72.00;;;;;;5049558;28;20674;-55
2023/04/24 06:57:13;;;;;;;0.80;0.60;;;21.60;71.20;;;;;;5063097;28;20190;-58
2023/04/24 06:59:39;;;;;;;1.10;0.77;;;21.60;71.10;;;;;;5052330;28;20482;-52
2023/04/24 07:02:06;;;;;;;1.10;0.90;;;21.60;71.20;;;;;;5050780;28;20998;-51
2023/04/24 07:04:33;;;;;;;1.00;0.70;;;21.60;71.10;;;;;;5048612;28;20477;-60
2023/04/24 07:07:01;;;;;;;1.08;0.90;;;21.60;71.10;;;;;;5061990;28;20239;-52
2023/04/24 07:09:28;;;;;;;1.10;0.80;;;21.60;71.10;;;;;;5051399;28;20222;-53
2023/04/24 07:11:56;;;;;;;1.15;0.93;;;21.60;71.10;;;;;;5054713;28;20294;-58
2023/04/24 07:14:22;;;;;;;1.10;0.80;;;21.60;71.10;;;;;;5049759;28;20626;-58
2023/04/24 07:16:49;;;;;;;1.10;0.90;;;21.60;71.10;;;;;;5053158;28;20957;-54
2023/04/24 07:19:16;;;;;;;1.55;0.90;;;21.60;71.10;;;;;;5044433;28;20478;-54
2023/04/24 07:21:43;;;;;;;1.20;0.90;;;21.60;71.10;;;;;;5047439;28;20222;-63
2023/04/24 07:24:12;;;;;;;1.08;0.85;;;21.60;71.10;;;;;;5043265;28;20192;-58
2023/04/24 07:26:40;;;;;;;1.00;0.90;;;21.60;71.00;;;;;;5048049;28;20206;-54
2023/04/24 07:29:06;;;;;;;1.98;0.90;;;21.60;71.20;;;;;;5046578;28;20206;-58
2023/04/24 07:31:33;;;;;;;1.40;0.80;;;21.60;71.70;;;;;;5042809;28;20248;-55
2023/04/24 07:34:00;;;;;;;0.98;0.80;;;21.60;71.60;;;;;;5051566;28;20594;-51
2023/04/24 07:36:27;;;;;;;1.40;0.90;;;21.60;71.50;;;;;;5053817;28;20269;-51
2023/04/24 07:38:55;;;;;;;2.20;1.08;;;21.60;71.80;;;;;;5047292;28;20249;-51
2023/04/24 07:41:24;;;;;;;7.88;1.35;;;21.60;72.10;;;;;;5043010;28;20848;-60
2023/04/24 07:43:50;;;;;;;3.28;1.65;;;21.60;72.70;;;;;;5049274;28;20265;-52
2023/04/24 07:46:17;;;;;;;3.40;1.70;;;21.50;72.20;;;;;;5046596;28;20195;-57
2023/04/24 07:48:44;;;;;;;2.00;1.23;;;21.40;71.10;;;;;;5047514;28;20203;-53
2023/04/24 07:51:13;;;;;;;3.17;1.38;;;21.50;71.90;;;;;;5041854;28;20196;-55
2023/04/24 07:53:39;;;;;;;5.33;1.27;;;21.50;70.50;;;;;;5039383;28;20195;-56
2023/04/24 07:56:06;;;;;;;3.00;1.15;;;21.50;70.60;;;;;;5054109;28;20475;-64
2023/04/24 07:58:34;;;;;;;1.83;1.10;;;21.50;70.50;;;;;;5046957;28;20211;-63
2023/04/24 08:01:01;;;;;;;1.40;1.10;;;21.50;70.60;;;;;;5050344;28;20190;-55
2023/04/24 08:03:28;;;;;;;1.30;0.90;;;21.50;70.30;;;;;;5054205;28;20207;-56
2023/04/24 08:05:55;;;;;;;1.95;1.30;;;21.60;70.40;;;;;;5057885;28;20203;-58
2023/04/24 08:08:23;;;;;;;1.70;1.10;;;21.60;70.40;;;;;;5043121;28;20264;-63
2023/04/24 08:10:50;;;;;;;1.95;0.90;;;21.60;70.40;;;;;;5043319;28;20455;-60
2023/04/24 08:13:16;;;;;;;1.97;0.90;;;21.60;70.30;;;;;;5044445;28;20671;-57
2023/04/24 08:15:45;;;;;;;1.30;0.98;;;21.60;70.30;;;;;;5044497;28;20461;-56
2023/04/24 08:18:13;;;;;;;1.40;1.10;;;21.60;70.30;;;;;;5046906;28;20202;-63
2023/04/24 08:20:40;;;;;;;1.67;1.00;;;21.70;70.30;;;;;;5048512;28;20460;-67
2023/04/24 08:23:06;;;;;;;3.40;1.05;;;21.70;70.20;;;;;;5046765;28;20223;-62
2023/04/24 08:25:35;;;;;;;1.30;0.70;;;21.70;70.30;;;;;;5047093;28;20206;-53
2023/04/24 08:28:02;;;;;;;1.33;0.80;;;21.70;70.30;;;;;;5050058;28;20980;-55
2023/04/24 08:30:29;;;;;;;1.20;1.00;;;21.70;70.40;;;;;;5041964;28;20795;-58
2023/04/24 08:32:57;;;;;;;2.90;1.10;;;21.70;70.30;;;;;;5045888;28;20502;-50
2023/04/24 08:35:24;;;;;;;1.95;0.93;;;21.70;70.30;;;;;;5045783;28;20466;-51
2023/04/24 08:37:52;;;;;;;1.48;1.20;;;21.70;70.30;;;;;;5053383;28;20460;-54
2023/04/24 08:40:23;;;;;;;1.05;0.95;;;21.70;70.30;;;;;;5053330;28;21829;-54
2023/04/24 08:42:55;;;;;;;3.83;1.10;;;21.70;70.30;;;;;;5057751;28;20204;-54
2023/04/24 08:45:22;;;;;;;2.20;1.10;;;21.70;70.30;;;;;;5051595;28;20653;-57
2023/04/24 08:47:49;;;;;;;1.35;1.15;;;21.70;70.30;;;;;;5058915;28;20202;-57
2023/04/24 08:50:18;;;;;;;1.17;1.00;;;21.70;70.30;;;;;;5054461;28;20587;-58
2023/04/24 08:52:44;;;;;;;1.00;0.88;;;21.70;70.30;;;;;;5049925;28;20465;-59
2023/04/24 08:55:11;;;;;;;4.88;1.05;;;21.70;70.30;;;;;;5050698;28;20607;-55
2023/04/24 08:57:40;;;;;;;1.15;1.00;;;21.70;70.30;;;;;;5065673;28;20231;-53
2023/04/24 09:00:08;;;;;;;1.13;0.80;;;21.70;70.30;;;;;;5053392;28;20249;-52
2023/04/24 09:02:35;;;;;;;1.30;1.20;;;21.70;70.30;;;;;;5054547;28;20206;-54
2023/04/24 09:05:03;;;;;;;2.20;1.00;;;21.80;70.40;;;;;;5058641;28;20834;-56
2023/04/24 09:07:35;;;;;;;2.35;0.90;;;21.70;70.30;;;;;;5059577;28;20246;-59
2023/04/24 09:10:03;;;;;;;1.10;1.00;;;21.80;70.40;;;;;;5047324;28;20602;-59
2023/04/24 09:12:29;;;;;;;2.67;1.05;;;21.70;70.20;;;;;;5068162;28;20248;-63
2023/04/24 09:14:57;;;;;;;2.10;1.00;;;21.80;70.30;;;;;;5057890;28;20728;-62
2023/04/24 09:17:28;;;;;;;2.15;1.33;;;21.70;70.20;;;;;;5049190;28;20581;-58
2023/04/24 09:19:55;;;;;;;1.90;1.00;;;21.80;70.40;;;;;;5057555;28;20595;-53
2023/04/24 09:22:22;;;;;;;3.75;0.98;;;21.80;70.40;;;;;;5057919;28;20658;-54
2023/04/24 09:25:02;;;;;;;1.20;0.90;;;21.80;70.60;;;;;;5044795;28;20655;-60
2023/04/24 09:27:29;;;;;;;33.88;1.88;;;21.70;71.10;;;;;;5051355;28;20282;-58
2023/04/24 09:29:57;;;;;;;12.88;1.00;;;21.80;71.00;;;;;;5047060;28;20679;-58
2023/04/24 09:32:25;;;;;;;3.50;1.10;;;21.70;70.80;;;;;;5052102;28;20245;-60
2023/04/24 09:35:07;;;;;;;4.03;0.90;;;21.70;70.70;;;;;;5052887;28;20682;-59
2023/04/24 09:37:36;;;;;;;3.13;1.33;;;21.70;70.70;;;;;;5055562;28;20277;-53
2023/04/24 09:40:12;;;;;;;9.45;1.30;;;21.70;70.40;;;;;;5042219;28;20289;-69
2023/04/24 09:42:39;;;;;;;3.55;1.00;;;21.70;70.60;;;;;;5050176;28;20282;-55
2023/04/24 09:45:10;;;;;;;1.57;1.00;;;21.70;70.70;;;;;;5043741;28;20199;-69
2023/04/24 09:47:37;;;;;;;1.20;1.08;;;21.80;70.90;;;;;;5046696;28;20464;-59
2023/04/24 09:50:11;;;;;;;1.90;1.10;;;21.80;71.00;;;;;;5053756;28;20320;-60
2023/04/24 09:52:41;;;;;;;1.40;0.90;;;21.80;71.00;;;;;;5055064;28;20190;-55
2023/04/24 09:55:14;;;;;;;2.75;0.90;;;21.80;70.90;;;;;;5046898;28;20548;-61
2023/04/24 09:57:49;;;;;;;3.05;1.27;;;21.80;70.90;;;;;;5056905;28;20187;-63
2023/04/24 10:00:20;;;;;;;1.60;1.08;;;21.80;70.90;;;;;;5049386;28;20313;-55
2023/04/24 10:02:51;;;;;;;1.95;1.10;;;21.80;70.90;;;;;;5050607;28;20223;-58
2023/04/24 10:05:18;;;;;;;1.63;1.00;;;21.80;70.90;;;;;;5059143;28;20620;-57
2023/04/24 10:07:46;;;;;;;1.20;1.03;;;21.90;71.00;;;;;;5058937;28;20510;-61
2023/04/24 10:10:14;;;;;;;2.70;1.00;;;21.90;71.20;;;;;;5048137;28;20574;-65
2023/04/24 10:12:41;;;;;;;7.23;1.17;;;21.90;71.90;;;;;;5041684;28;20453;-53
2023/04/24 10:15:12;;;;;;;2.67;1.10;;;21.90;71.70;;;;;;5042131;28;20462;-64
2023/04/24 10:17:40;;;;;;;2.63;1.03;;;21.90;71.60;;;;;;5043304;28;20750;-58
2023/04/24 10:20:08;;;;;;;5.67;0.93;;;22.00;71.60;;;;;;5054043;28;20548;-61
2023/04/24 10:22:35;;;;;;;1.43;1.07;;;22.00;71.60;;;;;;5046775;28;20564;-60
2023/04/24 10:25:05;;;;;;;1.93;0.80;;;22.00;71.70;;;;;;5039704;28;20986;-58
2023/04/24 10:27:34;;;;;;;2.27;1.00;;;22.10;71.70;;;;;;5047240;28;20556;-56
2023/04/24 10:30:03;;;;;;;1.63;0.87;;;22.10;71.70;;;;;;5044392;28;20884;-55
2023/04/24 10:32:29;;;;;;;1.47;1.00;;;22.10;71.70;;;;;;5046830;28;20462;-52
2023/04/24 10:34:56;;;;;;;1.63;1.10;;;22.10;71.70;;;;;;5042654;28;20461;-51
2023/04/24 10:37:24;;;;;;;2.13;0.80;;;22.20;71.70;;;;;;5042734;28;20819;-53
2023/04/24 10:39:54;;;;;;;1.90;1.30;;;22.20;71.70;;;;;;5057280;28;20477;-53
2023/04/24 10:42:21;;;;;;;1.00;0.90;;;22.20;71.70;;;;;;5039992;28;21041;-55
2023/04/24 10:44:49;;;;;;;1.67;0.90;;;22.20;71.60;;;;;;5042497;28;22012;-54
2023/04/24 10:47:16;;;;;;;1.20;1.00;;;22.20;71.70;;;;;;5050767;28;20541;-49
2023/04/24 10:49:43;;;;;;;1.73;0.80;;;22.30;71.70;;;;;;5053274;28;20465;-58
2023/04/24 10:52:11;;;;;;;1.97;1.00;;;22.30;71.70;;;;;;5045731;28;20970;-54
2023/04/24 10:54:43;;;;;;;1.20;1.10;;;22.30;71.70;;;;;;5058002;28;20457;-51
2023/04/24 10:57:32;;;;;;;1.03;0.80;;;22.30;71.60;;;;;;5050296;28;20460;-64
2023/04/24 11:00:15;;;;;;;3.43;0.90;;;22.40;71.70;;;;;;5047148;28;21105;-60
2023/04/24 11:02:49;;;;;;;3.13;0.93;;;22.40;71.70;;;;;;5048490;28;20462;-63
2023/04/24 11:05:17;;;;;;;1.10;0.90;;;22.40;71.60;;;;;;5046842;28;20972;-51
2023/04/24 11:08:12;;;;;;;1.67;0.90;;;22.40;71.70;;;;;;5052039;28;20545;-54
2023/04/24 11:10:40;;;;;;;1.20;0.90;;;22.40;71.60;;;;;;5051824;28;21028;-59
2023/04/24 11:13:08;;;;;;;1.07;0.90;;;22.50;71.70;;;;;;5061190;28;20571;-57
2023/04/24 11:15:36;;;;;;;1.43;0.80;;;22.50;71.70;;;;;;5046208;28;20458;-55
2023/04/24 11:18:03;;;;;;;1.77;0.80;;;22.50;71.70;;;;;;5053905;28;20572;-53
2023/04/24 11:20:30;;;;;;;0.90;0.70;;;22.50;71.70;;;;;;5048442;28;20474;-53
2023/04/24 11:23:04;;;;;;;1.03;0.87;;;22.50;71.70;;;;;;5044099;28;20567;-57
2023/04/24 11:25:31;;;;;;;1.50;1.10;;;22.50;71.60;;;;;;5038729;28;21031;-57
2023/04/24 11:28:05;;;;;;;2.63;1.07;;;22.50;71.60;;;;;;5043905;28;20917;-50
2023/04/24 11:30:33;;;;;;;1.40;1.03;;;22.50;71.60;;;;;;5048711;28;20562;-63
2023/04/24 11:33:07;;;;;;;2.33;0.80;;;22.50;71.60;;;;;;5057037;28;20469;-51
2023/04/24 11:35:40;;;;;;;1.20;1.10;;;22.60;71.70;;;;;;5050406;28;20489;-51
2023/04/24 11:38:08;;;;;;;1.00;0.80;;;22.60;71.60;;;;;;5054738;28;20450;-52
2023/04/24 11:40:35;;;;;;;1.93;1.17;;;22.60;72.40;;;;;;5051085;28;20876;-58
2023/04/24 11:43:02;;;;;;;1.13;0.70;;;22.60;71.60;;;;;;5049993;28;20478;-60
2023/04/24 11:45:30;;;;;;;1.10;1.00;;;22.60;71.60;;;;;;5052093;28;20453;-58
2023/04/24 11:47:58;;;;;;;4.67;1.27;;;22.60;71.60;;;;;;5046210;28;20545;-54
2023/04/24 11:50:29;;;;;;;1.10;0.80;;;22.60;71.60;;;;;;5053650;28;20463;-67
2023/04/24 11:52:56;;;;;;;1.33;1.23;;;22.70;71.70;;;;;;5053819;28;20458;-65
2023/04/24 11:55:28;;;;;;;1.03;0.80;;;22.70;71.70;;;;;;5053196;28;20834;-67
2023/04/24 11:57:57;;;;;;;1.40;0.90;;;22.70;71.60;;;;;;5047222;28;20822;-60
2023/04/24 12:00:26;;;;;;;0.90;0.70;;;22.70;71.70;;;;;;5048010;28;20804;-59
2023/04/24 12:03:04;;;;;;;1.90;0.70;;;22.70;71.70;;;;;;5039586;28;21065;-63
2023/04/24 12:05:33;;;;;;;0.90;0.80;;;22.70;71.70;;;;;;5050775;28;20461;-58
2023/04/24 12:08:00;;;;;;;1.00;0.90;;;22.70;71.70;;;;;;5050204;28;20458;-60
2023/04/24 12:10:28;;;;;;;1.30;0.93;;;22.70;71.70;;;;;;5049665;28;20554;-59
2023/04/24 12:12:57;;;;;;;1.20;0.90;;;22.70;71.70;;;;;;5053070;28;20462;-63
2023/04/24 12:15:25;;;;;;;1.00;0.80;;;22.70;71.60;;;;;;5054889;28;20492;-61
2023/04/24 12:17:53;;;;;;;1.33;0.80;;;22.70;71.60;;;;;;5057311;28;21015;-63
2023/04/24 12:20:25;;;;;;;1.50;0.97;;;22.70;71.40;;;;;;5058331;28;20484;-60
2023/04/24 12:22:54;;;;;;;0.90;0.70;;;22.70;71.40;;;;;;5047810;28;20480;-61
2023/04/24 12:25:23;;;;;;;1.17;0.90;;;22.70;71.40;;;;;;5058114;28;20569;-63
2023/04/24 12:27:54;;;;;;;0.97;0.77;;;22.70;71.20;;;;;;5045195;28;20449;-61
2023/04/24 12:30:21;;;;;;;1.30;1.00;;;22.80;71.30;;;;;;5045412;28;20559;-61
2023/04/24 12:32:49;;;;;;;2.50;0.97;;;22.70;71.10;;;;;;5044818;28;20807;-63
2023/04/24 12:35:21;;;;;;;0.90;0.70;;;22.80;71.20;;;;;;5052355;28;20460;-62
2023/04/24 12:37:48;;;;;;;2.60;0.87;;;22.70;71.00;;;;;;5062607;28;20556;-62
2023/04/24 12:40:18;;;;;;;1.77;0.80;;;22.70;70.90;;;;;;5053315;28;21023;-60
2023/04/24 12:42:46;;;;;;;2.80;0.90;;;22.80;71.10;;;;;;5046374;28;20476;-61
2023/04/24 12:45:14;;;;;;;1.00;0.80;;;22.80;71.00;;;;;;5053641;28;20453;-61
2023/04/24 12:47:41;;;;;;;5.47;1.13;;;22.80;71.00;;;;;;5055120;28;20457;-62
2023/04/24 12:50:09;;;;;;;1.70;0.90;;;22.80;70.90;;;;;;5058046;28;20466;-62